Time;durP1;ratioP1;P1;durP2;ratioP2;P2;SDS_P1;SDS_P2;PMS_P1;PMS_P2;Temp;Humidity;BMP_temperature;BMP_pressure;BME280_temperature;BME280_humidity;BME280_pressure;Samples;Min_cycle;Max_cycle;Signal;HPM_P1;HPM_P2
2024/03/30 00:00:14;;;;;;;;;;;11.70;99.90;;;12.00;74.95;98635.03;5078452;28;19924;-82
2024/03/30 00:02:40;;;;;;;;;;;11.70;99.90;;;12.00;75.13;98629.69;5060239;28;19966;-82
2024/03/30 00:05:07;;;;;;;;;;;11.70;99.90;;;12.00;75.07;98632.34;5078137;28;20399;-82
2024/03/30 00:07:40;;;;;;;;;;;11.70;99.90;;;12.00;75.22;98635.81;5076627;28;19975;-82
2024/03/30 00:10:09;;;;;;;;;;;11.70;99.90;;;11.97;75.27;98628.34;5078349;28;19925;-82
2024/03/30 00:12:35;;;;;;;;;;;11.70;99.90;;;11.96;75.38;98620.63;5076932;28;20400;-82
2024/03/30 00:15:05;;;;;;;;;;;11.70;99.90;;;11.95;75.40;98627.00;5060129;28;19959;-82
2024/03/30 00:17:31;;;;;;;;;;;11.60;99.90;;;11.95;75.52;98619.78;5061012;28;19932;-82
2024/03/30 00:19:59;;;;;;;;;;;11.70;99.90;;;11.96;75.22;98620.63;5078959;28;19931;-82
2024/03/30 00:22:25;;;;;;;;;;;11.70;99.90;;;11.95;75.54;98617.13;5078305;28;19924;-82
2024/03/30 00:24:52;;;;;;;;;;;11.60;99.90;;;11.96;75.54;98609.94;5078268;28;20399;-82
2024/03/30 00:27:18;;;;;;;;;;;11.70;99.90;;;11.95;75.50;98605.63;5078537;28;19924;-82
2024/03/30 00:29:46;;;;;;;;;;;11.60;99.90;;;11.95;75.67;98608.31;5077058;28;19928;-81
2024/03/30 00:32:14;;;;;;;;;;;11.60;99.90;;;11.94;75.49;98612.84;5078310;28;19924;-82
2024/03/30 00:34:41;;;;;;;;;;;11.70;99.90;;;11.95;75.42;98618.97;5110349;28;20419;-82
2024/03/30 00:37:11;;;;;;;;;;;11.60;99.90;;;11.95;75.22;98608.31;5077924;28;19955;-82
2024/03/30 00:39:38;;;;;;;;;;;11.70;99.90;;;11.94;75.60;98615.50;5078131;28;20349;-82
2024/03/30 00:42:04;;;;;;;;;;;11.70;99.90;;;11.93;75.79;98616.59;5076541;28;19959;-82
2024/03/30 00:44:33;;;;;;;;;;;11.70;99.90;;;11.91;75.84;98615.22;5075924;28;19929;-82
2024/03/30 00:47:00;;;;;;;;;;;11.60;99.90;;;11.89;76.07;98615.50;5076258;28;19935;-82
2024/03/30 00:49:28;;;;;;;;;;;11.60;99.90;;;11.92;76.16;98614.19;5058402;28;19931;-82
2024/03/30 00:51:54;;;;;;;;;;;11.60;99.90;;;11.91;75.86;98608.06;5058959;28;19971;-82
2024/03/30 00:54:21;;;;;;;;;;;11.70;99.90;;;11.93;76.19;98586.41;5077101;28;19928;-82
2024/03/30 00:56:47;;;;;;;;;;;11.60;99.90;;;11.92;76.18;98579.47;5075268;28;19974;-82
2024/03/30 00:59:15;;;;;;;;;;;11.60;99.90;;;11.91;76.35;98554.63;5074846;28;19955;-82
2024/03/30 01:01:41;;;;;;;;;;;11.60;99.90;;;11.92;76.28;98550.88;5077349;28;20007;-82
2024/03/30 01:04:09;;;;;;;;;;;11.60;99.90;;;11.94;76.46;98564.75;5075839;28;19946;-82
2024/03/30 01:06:36;;;;;;;;;;;11.60;99.90;;;11.93;76.13;98560.50;5058978;28;19963;-81
2024/03/30 01:09:04;;;;;;;;;;;11.70;99.90;;;11.92;76.20;98553.56;5077233;28;19929;-82
2024/03/30 01:11:30;;;;;;;;;;;11.70;99.90;;;11.93;76.37;98541.00;5077263;28;20011;-82
2024/03/30 01:13:58;;;;;;;;;;;11.60;99.90;;;11.92;76.47;98540.19;5077048;28;19929;-82
2024/03/30 01:16:25;;;;;;;;;;;11.60;99.90;;;11.92;76.70;98534.06;5074957;28;19924;-82
2024/03/30 01:18:52;;;;;;;;;;;11.70;99.90;;;11.92;76.45;98537.53;5074521;28;19966;-82
2024/03/30 01:21:20;;;;;;;;;;;11.70;99.90;;;11.95;76.63;98538.84;5058539;28;19924;-82
2024/03/30 01:23:50;;;;;;;;;;;11.60;99.90;;;11.95;76.50;98518.28;5076919;28;20410;-82
2024/03/30 01:26:18;;;;;;;;;;;11.60;99.90;;;11.95;76.43;98514.81;5076034;28;19924;-82
2024/03/30 01:28:47;;;;;;;;;;;11.60;99.90;;;11.94;76.25;98499.84;5075500;28;20361;-82
2024/03/30 01:31:14;;;;;;;;;;;11.70;99.90;;;11.93;76.35;98508.94;5076338;28;19925;-82
2024/03/30 01:33:43;;;;;;;;;;;11.70;99.90;;;11.92;76.37;98510.00;5075316;28;19932;-81
2024/03/30 01:36:10;;;;;;;;;;;11.60;99.90;;;11.91;76.22;98506.53;5076434;28;19928;-81
2024/03/30 01:38:37;;;;;;;;;;;11.60;99.90;;;11.91;75.98;98506.53;5058463;28;19924;-82
2024/03/30 01:41:09;;;;;;;;;;;11.60;99.90;;;11.88;75.99;98496.38;5075582;28;19931;-82
2024/03/30 01:43:36;;;;;;;;;;;11.60;99.90;;;11.86;75.97;98490.53;5076788;28;20013;-82
2024/03/30 01:46:04;;;;;;;;;;;11.50;99.90;;;11.86;75.85;98487.84;5074827;28;20018;-82
2024/03/30 01:48:32;;;;;;;;;;;11.50;99.90;;;11.84;75.70;98488.09;5057870;28;19933;-82
2024/03/30 01:50:58;;;;;;;;;;;11.50;99.90;;;11.81;75.50;98483.28;5075914;28;20303;-82
2024/03/30 01:53:28;;;;;;;;;;;11.40;99.90;;;11.81;75.29;98488.63;5075742;28;19932;-82
2024/03/30 01:55:54;;;;;;;;;;;11.50;99.90;;;11.78;75.23;98489.16;5076137;28;19925;-82
2024/03/30 01:58:27;;;;;;;;;;;11.40;99.90;;;11.76;75.20;98483.28;5058288;28;19928;-81
2024/03/30 02:00:54;;;;;;;;;;;11.40;99.90;;;11.76;75.08;98480.59;5074650;28;20362;-81
2024/03/30 02:03:24;;;;;;;;;;;11.30;99.90;;;11.73;75.03;98462.44;5074297;28;19974;-81
2024/03/30 02:05:52;;;;;;;;;;;11.40;99.90;;;11.73;75.07;98475.78;5075875;28;19978;-81
2024/03/30 02:08:20;;;;;;;;;;;11.40;99.90;;;11.73;75.11;98470.44;5076247;28;19924;-82
2024/03/30 02:10:48;;;;;;;;;;;11.40;99.90;;;11.73;75.08;98464.31;5077001;28;19928;-81
2024/03/30 02:13:18;;;;;;;;;;;11.40;99.90;;;11.71;74.86;98461.09;5077015;28;20019;-82
2024/03/30 02:15:46;;;;;;;;;;;11.30;99.90;;;11.69;74.71;98450.69;5074994;28;19924;-82
2024/03/30 02:18:13;;;;;;;;;;;11.30;99.90;;;11.64;74.52;98428.53;5075797;28;19924;-82
2024/03/30 02:20:40;;;;;;;;;;;11.30;99.90;;;11.63;74.90;98441.09;5076554;28;19986;-82
2024/03/30 02:23:07;;;;;;;;;;;11.20;99.90;;;11.61;74.63;98443.22;5076309;28;19934;-80
2024/03/30 02:25:38;;;;;;;;;;;11.20;99.90;;;11.58;74.32;98438.41;5075464;28;19925;-82
2024/03/30 02:28:05;;;;;;;;;;;11.20;99.90;;;11.57;74.76;98450.97;5076035;28;20295;-82
2024/03/30 02:30:39;;;;;;;;;;;11.20;99.90;;;11.58;74.76;98447.22;5074192;28;19967;-82
2024/03/30 02:33:06;;;;;;;;;;;11.20;99.90;;;11.56;75.05;98441.34;5074638;28;19939;-82
2024/03/30 02:35:32;;;;;;;;;;;11.20;99.90;;;11.57;75.18;98442.97;5074835;28;20414;-82
2024/03/30 02:38:00;;;;;;;;;;;11.20;99.90;;;11.56;74.97;98438.66;5075729;28;19924;-82
2024/03/30 02:40:27;;;;;;;;;;;11.20;99.90;;;11.56;75.21;98441.34;5074115;28;19937;-82
2024/03/30 02:43:07;;;;;;;;;;;11.20;99.90;;;11.57;75.12;98436.81;5473368;22;19930;-82
2024/03/30 02:45:33;;;;;;;;;;;11.20;99.90;;;11.55;74.97;98430.94;5095839;28;19924;-81
2024/03/30 02:48:00;;;;;;;;;;;11.20;99.90;;;11.56;75.01;98437.88;5095055;28;19964;-81
2024/03/30 02:50:27;;;;;;;;;;;11.20;99.90;;;11.54;74.96;98432.00;5094013;28;19924;-80
2024/03/30 02:52:54;;;;;;;;;;;11.20;99.90;;;11.53;75.18;98425.06;5095729;28;19931;-81
2024/03/30 02:55:20;;;;;;;;;;;11.20;99.90;;;11.53;74.88;98412.53;5094098;28;19977;-81
2024/03/30 02:57:47;;;;;;;;;;;11.10;99.90;;;11.53;74.95;98411.72;5094997;28;19936;-81
2024/03/30 03:00:15;;;;;;;;;;;11.10;99.90;;;11.52;75.42;98426.94;5094756;28;20390;-81
2024/03/30 03:02:42;;;;;;;;;;;11.10;99.90;;;11.52;75.31;98426.94;5094767;28;19993;-81
2024/03/30 03:05:08;;;;;;;;;;;11.10;99.90;;;11.49;75.08;98399.97;5094253;28;20005;-81
2024/03/30 03:07:35;;;;;;;;;;;11.10;99.90;;;11.49;75.11;98400.78;5095810;28;19978;-81
2024/03/30 03:10:01;;;;;;;;;;;11.10;99.90;;;11.49;75.32;98397.31;5095103;28;20129;-80
2024/03/30 03:12:30;;;;;;;;;;;11.10;99.90;;;11.50;75.32;98394.38;5095368;28;20015;-81
2024/03/30 03:14:56;;;;;;;;;;;11.10;99.90;;;11.52;75.34;98399.44;5095893;28;19932;-81
2024/03/30 03:17:25;;;;;;;;;;;11.10;99.90;;;11.52;75.21;98412.81;5077529;28;19924;-80
2024/03/30 03:19:51;;;;;;;;;;;11.10;99.90;;;11.51;75.18;98417.31;5095834;28;20011;-80
2024/03/30 03:22:18;;;;;;;;;;;11.10;99.90;;;11.49;75.22;98405.31;5076999;28;19924;-81
2024/03/30 03:24:45;;;;;;;;;;;11.10;99.90;;;11.49;75.39;98405.31;5095710;28;19986;-81
2024/03/30 03:27:12;;;;;;;;;;;11.10;99.90;;;11.48;75.49;98401.84;5095956;28;19924;-80
2024/03/30 03:29:39;;;;;;;;;;;11.10;99.90;;;11.46;75.17;98395.97;5096848;28;19924;-81
2024/03/30 03:32:07;;;;;;;;;;;11.10;99.90;;;11.45;75.37;98391.69;5094552;28;19973;-81
2024/03/30 03:34:34;;;;;;;;;;;11.10;99.90;;;11.46;75.27;98395.97;5094302;28;19930;-80
2024/03/30 03:37:01;;;;;;;;;;;11.10;99.90;;;11.48;75.52;98385.03;5095322;28;19924;-81
2024/03/30 03:39:27;;;;;;;;;;;11.10;99.90;;;11.48;75.67;98401.06;5077516;28;19924;-80
2024/03/30 03:41:55;;;;;;;;;;;11.10;99.90;;;11.45;75.82;98407.72;5098922;28;19947;-81
2024/03/30 03:44:23;;;;;;;;;;;11.10;99.90;;;11.44;75.51;98402.66;5079861;28;20168;-80
2024/03/30 03:46:51;;;;;;;;;;;11.10;99.90;;;11.41;75.55;98395.16;5097656;28;19924;-81
2024/03/30 03:49:19;;;;;;;;;;;11.10;99.90;;;11.40;75.54;98389.03;5098415;28;20034;-81
2024/03/30 03:51:48;;;;;;;;;;;11.10;99.90;;;11.39;75.45;98386.63;5096972;28;19924;-81
2024/03/30 03:54:14;;;;;;;;;;;11.00;99.90;;;11.39;75.64;98381.31;5097253;28;20390;-81
2024/03/30 03:56:41;;;;;;;;;;;11.20;99.90;;;11.39;75.66;98387.44;5098516;28;20402;-81
2024/03/30 03:59:10;;;;;;;;;;;11.00;99.90;;;11.39;75.57;98384.78;5098520;28;20413;-80
2024/03/30 04:01:37;;;;;;;;;;;11.00;99.90;;;11.37;75.57;98383.41;5098409;28;19928;-81
2024/03/30 04:04:04;;;;;;;;;;;11.00;99.90;;;11.33;75.22;98372.50;5098788;28;19946;-81
2024/03/30 04:06:31;;;;;;;;;;;11.00;99.90;;;11.30;75.18;98376.50;5096519;28;19947;-81
2024/03/30 04:08:59;;;;;;;;;;;11.00;99.90;;;11.31;75.15;98374.63;5096902;28;19963;-81
2024/03/30 04:11:26;;;;;;;;;;;10.90;99.90;;;11.31;75.09;98377.28;5098072;28;19924;-81
2024/03/30 04:13:52;;;;;;;;;;;10.90;99.90;;;11.28;75.20;98375.19;5098953;28;19967;-80
2024/03/30 04:16:20;;;;;;;;;;;10.90;99.90;;;11.27;75.23;98370.88;5098065;28;19924;-81
2024/03/30 04:18:46;;;;;;;;;;;10.90;99.90;;;11.29;75.05;98377.56;5098351;28;19978;-81
2024/03/30 04:21:13;;;;;;;;;;;10.90;99.90;;;11.28;74.74;98367.97;5115011;28;19928;-81
2024/03/30 04:23:39;;;;;;;;;;;10.90;99.90;;;11.23;74.86;98362.63;5098033;28;19924;-81
2024/03/30 04:26:09;;;;;;;;;;;10.90;99.90;;;11.24;75.01;98369.56;5079397;28;19998;-81
2024/03/30 04:28:36;;;;;;;;;;;10.90;99.90;;;11.27;74.78;98373.56;5095899;28;19924;-81
2024/03/30 04:31:05;;;;;;;;;;;10.90;99.90;;;11.26;75.23;98363.94;5095767;28;19928;-81
2024/03/30 04:33:31;;;;;;;;;;;10.90;99.90;;;11.23;75.05;98367.16;5097446;28;19924;-81
2024/03/30 04:36:00;;;;;;;;;;;10.90;99.90;;;11.20;74.90;98357.03;5097426;28;20353;-80
2024/03/30 04:38:27;;;;;;;;;;;10.90;99.90;;;11.18;74.95;98354.63;5097380;28;20382;-81
2024/03/30 04:41:02;;;;;;;;;;;10.80;99.90;;;11.19;74.69;98356.22;5097288;28;20386;-81
2024/03/30 04:43:32;;;;;;;;;;;10.80;99.90;;;11.19;74.68;98350.88;5097588;28;19947;-80
2024/03/30 04:45:59;;;;;;;;;;;10.80;99.90;;;11.16;74.45;98347.94;5095313;28;19972;-80
2024/03/30 04:48:28;;;;;;;;;;;10.80;99.90;;;11.16;74.54;98335.41;5096762;28;19932;-81
2024/03/30 04:50:59;;;;;;;;;;;10.70;99.90;;;11.15;74.46;98341.00;5095729;28;19935;-81
2024/03/30 04:53:29;;;;;;;;;;;10.70;99.90;;;11.15;74.45;98338.34;5095376;28;19924;-81
2024/03/30 04:55:59;;;;;;;;;;;10.70;99.90;;;11.12;74.34;98331.66;5096061;28;20430;-81
2024/03/30 04:58:27;;;;;;;;;;;10.70;99.90;;;11.11;74.26;98326.59;5090712;28;19924;-81
2024/03/30 05:01:00;;;;;;;;;;;10.70;99.90;;;11.09;74.46;98330.34;5097437;28;20416;-81
2024/03/30 05:03:27;;;;;;;;;;;10.70;99.90;;;11.10;74.44;98331.16;5095703;28;19932;-81
2024/03/30 05:05:53;;;;;;;;;;;10.70;99.90;;;11.12;74.50;98329.00;5095578;28;19924;-80
2024/03/30 05:08:21;;;;;;;;;;;10.70;99.90;;;11.11;74.52;98324.75;5095870;28;20448;-81
2024/03/30 05:10:47;;;;;;;;;;;10.70;99.90;;;11.12;74.57;98326.31;5095200;28;20357;-81
2024/03/30 05:13:15;;;;;;;;;;;10.70;99.90;;;11.10;74.64;98333.81;5096959;28;19935;-81
2024/03/30 05:15:43;;;;;;;;;;;10.70;99.90;;;11.05;74.22;98325.81;5096130;28;19963;-81
2024/03/30 05:18:14;;;;;;;;;;;10.70;99.90;;;11.00;74.27;98326.63;5095016;28;19932;-80
2024/03/30 05:23:27;;;;;;;;;;;10.60;99.90;;;10.94;74.02;98319.69;5096281;28;20386;-81
2024/03/30 05:25:55;;;;;;;;;;;10.60;99.90;;;10.92;73.89;98307.66;5094935;28;19928;-80
2024/03/30 05:28:24;;;;;;;;;;;10.60;99.90;;;10.93;74.08;98306.59;5094851;28;19970;-81
2024/03/30 05:30:54;;;;;;;;;;;10.50;99.90;;;10.95;73.80;98302.59;5096500;28;20355;-81
2024/03/30 05:33:24;;;;;;;;;;;10.50;99.90;;;10.96;73.93;98303.41;5077604;28;19930;-81
2024/03/30 05:35:54;;;;;;;;;;;10.60;99.90;;;10.97;74.16;98311.13;5095902;28;19962;-81
2024/03/30 05:38:22;;;;;;;;;;;10.60;99.90;;;10.98;74.27;98295.91;5095629;28;19931;-81
2024/03/30 05:40:49;;;;;;;;;;;10.60;99.90;;;10.99;74.25;98297.53;5095462;28;19928;-80
2024/03/30 05:43:17;;;;;;;;;;;10.60;99.90;;;10.99;74.30;98295.69;5095387;28;19924;-81
2024/03/30 05:45:47;;;;;;;;;;;10.60;99.90;;;11.00;74.40;98299.13;5095612;28;19928;-80
2024/03/30 05:48:14;;;;;;;;;;;10.60;99.90;;;11.00;74.59;98307.94;5095245;28;19928;-80
2024/03/30 05:50:41;;;;;;;;;;;10.60;99.90;;;11.02;74.73;98297.00;5094750;28;19924;-81
2024/03/30 05:53:09;;;;;;;;;;;10.60;99.90;;;10.99;74.79;98297.53;5095909;28;19924;-81
2024/03/30 05:55:35;;;;;;;;;;;10.60;99.90;;;10.98;74.64;98303.94;5095944;28;19924;-80
2024/03/30 05:58:05;;;;;;;;;;;10.60;99.90;;;10.99;74.83;98300.22;5094139;28;20357;-81
2024/03/30 06:00:31;;;;;;;;;;;10.60;99.90;;;10.98;74.84;98298.59;5095283;28;19924;-81
2024/03/30 06:02:59;;;;;;;;;;;10.60;99.90;;;11.00;74.92;98307.16;5094910;28;20006;-81
2024/03/30 06:05:25;;;;;;;;;;;10.60;99.90;;;10.98;74.82;98311.94;5095188;28;20023;-81
2024/03/30 06:07:54;;;;;;;;;;;10.60;99.90;;;10.96;75.10;98311.41;5095666;28;19924;-80
2024/03/30 06:10:20;;;;;;;;;;;10.60;99.90;;;10.97;75.02;98311.13;5094093;28;19970;-80
2024/03/30 06:12:50;;;;;;;;;;;10.60;99.90;;;10.97;75.14;98316.47;5093937;28;19934;-81
2024/03/30 06:15:16;;;;;;;;;;;10.80;99.90;;;10.97;75.20;98305.00;5094072;28;19969;-81
2024/03/30 06:17:44;;;;;;;;;;;10.60;99.90;;;10.96;75.30;98311.41;5077148;28;20378;-81
2024/03/30 06:20:11;;;;;;;;;;;10.60;99.90;;;10.96;75.49;98319.41;5095115;28;20034;-80
2024/03/30 06:22:38;;;;;;;;;;;10.60;99.90;;;10.97;75.68;98313.78;5095379;28;19958;-81
2024/03/30 06:25:07;;;;;;;;;;;10.60;99.90;;;10.98;75.44;98311.94;5094544;28;19950;-80
2024/03/30 06:27:34;;;;;;;;;;;10.70;99.90;;;11.00;75.71;98301.81;5096254;28;19950;-80
2024/03/30 06:30:01;;;;;;;;;;;10.70;99.90;;;11.01;75.87;98301.53;5094868;28;19924;-80
2024/03/30 06:32:28;;;;;;;;;;;10.70;99.90;;;11.02;76.24;98297.78;5095231;28;19924;-81
2024/03/30 06:34:55;;;;;;;;;;;10.70;99.90;;;11.05;76.33;98301.81;5094987;28;20421;-80
2024/03/30 06:37:21;;;;;;;;;;;10.70;99.90;;;11.08;76.29;98301.28;5095308;28;19955;-80
2024/03/30 06:45:18;;;;;;;;;;;10.80;99.90;;;11.12;76.99;98307.66;5095144;28;19931;-81
2024/03/30 06:47:45;;;;;;;;;;;10.90;99.90;;;11.16;77.23;98315.94;5094316;28;19924;-80
2024/03/30 06:50:12;;;;;;;;;;;10.90;99.90;;;11.20;77.45;98309.00;5095225;28;19931;-80
2024/03/30 06:52:40;;;;;;;;;;;10.90;99.90;;;11.22;77.51;98312.97;5093511;28;19971;-80
2024/03/30 06:55:08;;;;;;;;;;;11.00;99.90;;;11.24;77.86;98316.19;5094758;28;19928;-80
2024/03/30 06:57:39;;;;;;;;;;;11.00;99.90;;;11.27;78.06;98315.69;5093346;28;20396;-81
2024/03/30 07:00:09;;;;;;;;;;;11.10;99.90;;;11.31;78.14;98310.56;5092965;28;19931;-81
2024/03/30 07:02:35;;;;;;;;;;;11.10;99.90;;;11.34;78.21;98310.84;5096709;28;20433;-81
2024/03/30 07:05:02;;;;;;;;;;;11.10;99.90;;;11.38;78.25;98313.00;5095230;28;20375;-81
2024/03/30 07:07:29;;;;;;;;;;;11.10;99.90;;;11.39;78.16;98319.91;5094345;28;19955;-81
2024/03/30 07:09:56;;;;;;;;;;;11.20;99.90;;;11.42;78.52;98319.38;5093927;28;19924;-80
2024/03/30 07:12:22;;;;;;;;;;;11.20;99.90;;;11.42;78.69;98319.38;5094703;28;19924;-81
2024/03/30 07:14:51;;;;;;;;;;;11.20;99.90;;;11.44;78.66;98319.91;5094641;28;19924;-81
2024/03/30 07:17:17;;;;;;;;;;;11.20;99.90;;;11.48;78.96;98320.97;5099309;28;20009;-81
2024/03/30 07:19:44;;;;;;;;;;;11.20;99.90;;;11.49;78.47;98322.56;5100211;28;19924;-81
2024/03/30 07:22:10;;;;;;;;;;;11.30;99.90;;;11.50;78.64;98329.50;5099088;28;19928;-80
2024/03/30 07:24:37;;;;;;;;;;;11.30;99.90;;;11.51;78.35;98337.22;5100467;28;20355;-81
2024/03/30 07:27:04;;;;;;;;;;;11.30;99.90;;;11.51;78.68;98345.25;5116180;28;20058;-81
2024/03/30 07:29:32;;;;;;;;;;;11.30;99.90;;;11.52;78.84;98338.84;5100131;28;19967;-80
2024/03/30 07:32:00;;;;;;;;;;;11.30;99.90;;;11.53;79.12;98343.13;5098686;28;19924;-81
2024/03/30 07:34:28;;;;;;;;;;;11.30;99.90;;;11.55;79.21;98354.31;5099208;28;20468;-81
2024/03/30 07:36:54;;;;;;;;;;;11.30;99.90;;;11.55;79.21;98380.22;5099121;28;19924;-81
2024/03/30 07:39:21;;;;;;;;;;;11.30;99.90;;;11.54;79.38;98378.63;5098880;28;19982;-81
2024/03/30 07:41:47;;;;;;;;;;;11.30;99.90;;;11.52;79.70;98400.25;5114875;28;20044;-81
2024/03/30 07:44:17;;;;;;;;;;;11.30;99.90;;;11.49;80.05;98402.66;5082083;28;19935;-81
2024/03/30 07:46:44;;;;;;;;;;;11.30;99.90;;;11.50;80.53;98388.22;5099544;28;19931;-81
2024/03/30 07:49:12;;;;;;;;;;;11.30;99.90;;;11.52;80.37;98372.75;5099085;28;19930;-81
2024/03/30 07:51:39;;;;;;;;;;;11.30;99.90;;;11.52;80.75;98357.53;5098542;28;19924;-81
2024/03/30 07:54:05;;;;;;;;;;;11.30;99.90;;;11.51;80.75;98373.81;5099797;28;20394;-81
2024/03/30 07:56:33;;;;;;;;;;;11.30;99.90;;;11.54;80.49;98373.28;5098710;28;19928;-81
2024/03/30 07:59:01;;;;;;;;;;;11.30;99.90;;;11.57;80.77;98384.22;5100142;28;19924;-81
2024/03/30 08:01:29;;;;;;;;;;;11.30;99.90;;;11.60;80.76;98373.00;5098575;28;19935;-81
2024/03/30 08:03:55;;;;;;;;;;;11.40;99.90;;;11.62;80.36;98383.44;5100095;28;19928;-80
2024/03/30 08:06:24;;;;;;;;;;;11.40;99.90;;;11.62;80.19;98372.75;5099907;28;20275;-81
2024/03/30 08:08:50;;;;;;;;;;;11.40;99.90;;;11.64;80.43;98362.59;5098992;28;19928;-81
2024/03/30 08:11:17;;;;;;;;;;;11.40;99.90;;;11.67;80.06;98361.25;5098701;28;19977;-81
2024/03/30 08:13:43;;;;;;;;;;;11.40;99.90;;;11.67;79.85;98351.38;5099087;28;19964;-80
2024/03/30 08:16:10;;;;;;;;;;;11.50;99.90;;;11.67;80.39;98351.38;5080131;28;20007;-81
2024/03/30 08:18:36;;;;;;;;;;;11.50;99.90;;;11.71;80.43;98341.75;5097307;28;19963;-80
2024/03/30 08:21:04;;;;;;;;;;;11.50;99.90;;;11.75;80.39;98342.00;5098093;28;19924;-80
2024/03/30 08:23:32;;;;;;;;;;;11.50;99.90;;;11.78;79.93;98336.13;5097311;28;20451;-80
2024/03/30 08:26:00;;;;;;;;;;;11.60;99.90;;;11.80;79.64;98333.97;5097263;28;19924;-80
2024/03/30 08:28:26;;;;;;;;;;;11.60;99.90;;;11.86;80.13;98327.59;5098824;28;19954;-79
2024/03/30 08:30:53;;;;;;;;;;;11.70;99.90;;;11.91;80.80;98326.75;5096371;28;20374;-80
2024/03/30 08:33:19;;;;;;;;;;;11.80;99.90;;;11.98;80.50;98324.59;5097295;28;19924;-80
2024/03/30 08:35:53;;;;;;;;;;;11.80;99.90;;;12.03;80.20;98322.69;5096717;28;19997;-80
2024/03/30 08:38:20;;;;;;;;;;;11.90;99.90;;;12.11;79.73;98314.13;5096620;28;19962;-80
2024/03/30 08:40:49;;;;;;;;;;;12.00;99.90;;;12.16;79.57;98317.84;5097961;28;20373;-80
2024/03/30 08:43:16;;;;;;;;;;;12.00;99.90;;;12.21;79.53;98302.59;5113601;22;19928;-82
2024/03/30 08:45:43;;;;;;;;;;;12.10;99.90;;;12.31;79.49;98307.09;5098405;28;19931;-82
2024/03/30 08:48:12;;;;;;;;;;;12.20;99.90;;;12.37;80.35;98306.78;5097481;28;20019;-82
2024/03/30 08:50:39;;;;;;;;;;;12.40;99.90;;;12.43;80.29;98294.16;5099139;28;19927;-82
2024/03/30 08:53:07;;;;;;;;;;;12.40;99.90;;;12.51;80.73;98295.47;5094974;28;20034;-82
2024/03/30 08:55:34;;;;;;;;;;;12.50;99.90;;;12.55;80.27;98296.53;5079647;28;19925;-81
2024/03/30 08:58:02;;;;;;;;;;;12.60;99.90;;;12.65;80.68;98293.78;5029302;28;19984;-81
2024/03/30 09:00:29;;;;;;;;;;;12.70;99.90;;;12.79;81.48;98293.94;5079248;28;19924;-81
2024/03/30 09:02:55;;;;;;;;;;;12.90;99.90;;;12.89;81.28;98292.00;5079938;28;19933;-81
2024/03/30 09:05:23;;;;;;;;;;;13.00;99.90;;;12.93;79.30;98288.75;5078339;28;19932;-83
2024/03/30 09:07:49;;;;;;;;;;;13.10;99.90;;;12.93;78.14;98283.38;5078316;28;19924;-81
2024/03/30 09:10:16;;;;;;;;;;;13.10;99.90;;;12.94;78.32;98285.00;5078503;28;19963;-81
2024/03/30 09:12:42;;;;;;;;;;;13.10;99.90;;;12.96;77.97;98286.31;5079060;28;19952;-81
2024/03/30 09:15:11;;;;;;;;;;;13.10;99.90;;;12.99;77.70;98285.75;5079562;28;19947;-81
2024/03/30 09:17:37;;;;;;;;;;;13.10;99.90;;;13.04;77.47;98290.28;5077782;28;20016;-81
2024/03/30 09:20:05;;;;;;;;;;;13.20;99.90;;;13.14;77.91;98290.19;5111666;28;20388;-81
2024/03/30 09:22:31;;;;;;;;;;;13.30;99.90;;;13.20;78.07;98294.41;5110501;28;19950;-81
2024/03/30 09:25:03;;;;;;;;;;;13.40;99.90;;;13.25;77.79;98286.34;5061566;28;19948;-81
2024/03/30 09:27:31;;;;;;;;;;;13.40;99.90;;;13.32;77.39;98288.69;5079950;28;19931;-81
2024/03/30 09:29:58;;;;;;;;;;;13.50;99.90;;;13.44;78.73;98293.66;5079248;28;19924;-81
2024/03/30 09:32:26;;;;;;;;;;;13.60;99.90;;;13.55;78.18;98298.63;5061802;28;19924;-81
2024/03/30 09:34:53;;;;;;;;;;;13.70;99.90;;;13.64;77.40;98296.94;5077935;28;20011;-81
2024/03/30 09:37:20;;;;;;;;;;;13.80;99.90;;;13.73;77.80;98290.97;5077683;28;19924;-81
2024/03/30 09:39:46;;;;;;;;;;;13.90;99.90;;;13.85;77.80;98302.06;5079579;28;19924;-81
2024/03/30 09:42:20;;;;;;;;;;;14.10;99.90;;;13.93;73.19;98288.03;5060239;28;19924;-81
2024/03/30 09:44:46;;;;;;;;;;;14.20;99.90;;;13.99;69.65;98276.16;5077946;28;19960;-81
2024/03/30 09:47:14;;;;;;;;;;;14.30;99.90;;;14.11;67.07;98289.16;5077134;28;19925;-81
2024/03/30 09:49:43;;;;;;;;;;;14.40;99.90;;;14.23;65.27;98294.88;5077333;28;20346;-81
2024/03/30 09:52:11;;;;;;;;;;;14.50;99.90;;;14.49;61.81;98291.88;5077873;28;20015;-81
2024/03/30 09:54:38;;;;;;;;;;;14.70;99.90;;;14.62;62.24;98294.63;5078844;28;19925;-81
2024/03/30 09:57:06;;;;;;;;;;;14.90;99.90;;;14.66;58.39;98301.00;5060327;28;19924;-81
2024/03/30 09:59:32;;;;;;;;;;;15.00;99.90;;;14.87;59.20;98309.53;5077378;28;19924;-81
2024/03/30 10:02:00;;;;;;;;;;;15.10;99.90;;;14.82;61.00;98293.53;5060618;28;19982;-81
2024/03/30 10:04:26;;;;;;;;;;;15.10;99.90;;;14.85;58.92;98298.31;5043893;28;20011;-81
2024/03/30 10:07:00;;;;;;;;;;;15.20;99.90;;;15.01;57.59;98288.13;5077849;28;20335;-81
2024/03/30 10:09:26;;;;;;;;;;;15.30;99.90;;;15.11;58.12;98303.25;5077532;28;20383;-81
2024/03/30 10:11:59;;;;;;;;;;;15.40;99.90;;;15.22;56.22;98307.38;5077659;28;20494;-81
2024/03/30 10:14:31;;;;;;;;;;;15.50;99.90;;;15.21;56.17;98297.72;5076906;28;19924;-81
2024/03/30 10:16:58;;;;;;;;;;;15.60;99.90;;;15.34;56.42;98302.34;5077965;28;20478;-81
2024/03/30 10:19:26;;;;;;;;;;;15.70;99.90;;;15.31;55.14;98286.81;5076896;28;19924;-81
2024/03/30 10:21:55;;;;;;;;;;;15.70;99.90;;;15.37;56.07;98287.50;5078097;28;19955;-81
2024/03/30 10:24:22;;;;;;;;;;;15.70;99.90;;;15.36;57.38;98296.66;5059813;28;19931;-81
2024/03/30 10:26:49;;;;;;;;;;;15.70;99.90;;;15.43;55.21;98299.78;5077118;28;20018;-81
2024/03/30 10:29:16;;;;;;;;;;;15.80;99.90;;;15.48;56.02;98290.81;5094525;28;19928;-80
2024/03/30 10:31:44;;;;;;;;;;;15.80;99.90;;;15.43;56.37;98289.81;5027016;28;19928;-81
2024/03/30 10:34:10;;;;;;;;;;;15.80;99.90;;;15.41;55.47;98301.94;5078928;28;19925;-81
2024/03/30 10:36:39;;;;;;;;;;;15.70;99.90;;;15.52;54.62;98302.53;5078988;28;19924;-81
2024/03/30 10:39:06;;;;;;;;;;;15.80;99.90;;;15.64;53.14;98306.38;5077493;28;19924;-81
2024/03/30 10:41:34;;;;;;;;;;;15.90;99.90;;;15.63;53.85;98299.41;5094804;28;19931;-81
2024/03/30 10:44:00;;;;;;;;;;;16.00;99.90;;;15.69;53.31;98306.28;5077388;28;19932;-81
2024/03/30 10:46:28;;;;;;;;;;;16.00;99.90;;;15.70;54.39;98299.00;5079160;28;19932;-81
2024/03/30 10:48:54;;;;;;;;;;;16.00;99.90;;;15.78;51.84;98306.41;5093653;28;19946;-81
2024/03/30 10:51:25;;;;;;;;;;;16.10;99.90;;;15.78;51.91;98319.03;5083229;28;19928;-81
2024/03/30 10:53:51;;;;;;;;;;;16.10;99.90;;;15.73;52.42;98314.56;5082058;28;19930;-81
2024/03/30 10:56:20;;;;;;;;;;;16.00;99.90;;;15.75;50.99;98312.34;5082930;28;20314;-81
2024/03/30 10:58:47;;;;;;;;;;;16.00;99.90;;;15.72;51.14;98307.59;5083819;28;19995;-81
2024/03/30 11:01:15;;;;;;;;;;;16.00;99.90;;;15.70;50.68;98313.25;5064412;28;19963;-81
2024/03/30 11:03:41;;;;;;;;;;;16.00;99.90;;;15.77;50.84;98307.50;5064866;28;19974;-81
2024/03/30 11:06:09;;;;;;;;;;;16.10;99.90;;;15.73;51.38;98322.63;5047329;28;19925;-82
2024/03/30 11:08:36;;;;;;;;;;;16.00;99.90;;;15.76;50.52;98313.94;5064227;28;20027;-83
2024/03/30 11:11:04;;;;;;;;;;;16.00;99.90;;;15.75;50.93;98315.03;5080219;28;19968;-81
2024/03/30 11:13:31;;;;;;;;;;;16.10;99.90;;;15.75;51.02;98320.41;5081843;28;19924;-82
2024/03/30 11:16:00;;;;;;;;;;;16.00;99.90;;;15.78;49.67;98317.16;5080088;28;19924;-81
2024/03/30 11:18:31;;;;;;;;;;;16.10;99.90;;;15.82;51.21;98334.28;5080111;28;19924;-81
2024/03/30 11:21:02;;;;;;;;;;;16.10;99.90;;;15.79;50.27;98337.53;5080982;28;19932;-81
2024/03/30 11:23:38;;;;;;;;;;;16.10;99.90;;;15.72;51.77;98344.41;5082044;28;20341;-81
2024/03/30 11:26:09;;;;;;;;;;;16.00;99.90;;;15.65;51.70;98342.09;5079391;28;19925;-82